createdAt,value
2022-08-04T00:00:18.498Z,19.60
2022-08-04T00:02:48.509Z,19.60
2022-08-04T00:05:24.024Z,19.50
2022-08-04T00:07:51.008Z,19.50
2022-08-04T00:10:18.919Z,19.50
2022-08-04T00:12:47.879Z,19.50
2022-08-04T00:15:16.676Z,19.50
2022-08-04T00:18:07.314Z,19.50
2022-08-04T00:20:34.949Z,19.50
2022-08-04T00:23:02.409Z,19.50
2022-08-04T00:25:29.441Z,19.40
2022-08-04T00:27:56.503Z,19.40
2022-08-04T00:30:24.328Z,19.40
2022-08-04T00:32:51.511Z,19.50
2022-08-04T00:35:18.758Z,19.50
2022-08-04T00:37:46.046Z,19.50
2022-08-04T00:40:18.903Z,19.40
2022-08-04T00:42:59.759Z,19.40
2022-08-04T00:46:16.263Z,19.40
2022-08-04T00:48:51.583Z,19.40
2022-08-04T00:51:36.027Z,19.30
2022-08-04T00:54:21.289Z,19.30
2022-08-04T00:56:57.519Z,19.20
2022-08-04T00:59:33.729Z,19.20
2022-08-04T01:02:07.953Z,19.20
2022-08-04T01:04:38.142Z,19.20
2022-08-04T01:07:18.110Z,19.20
2022-08-04T01:10:03.914Z,19.20
2022-08-04T01:12:37.030Z,19.20
2022-08-04T01:15:06.388Z,19.20
2022-08-04T01:17:36.196Z,19.20
2022-08-04T01:20:15.665Z,19.10
2022-08-04T01:23:01.054Z,19.10
2022-08-04T01:25:39.138Z,19.10
2022-08-04T01:28:25.612Z,19.00
2022-08-04T01:30:55.412Z,19.10
2022-08-04T01:33:22.829Z,19.00
2022-08-04T01:35:56.774Z,19.00
2022-08-04T01:38:23.872Z,19.00
2022-08-04T01:40:55.502Z,18.90
2022-08-04T01:43:23.685Z,18.90
2022-08-04T01:45:52.590Z,18.90
2022-08-04T01:48:24.878Z,18.90
2022-08-04T01:50:58.182Z,18.90
2022-08-04T01:53:32.434Z,18.80
2022-08-04T01:56:00.894Z,18.70
2022-08-04T01:58:29.515Z,18.70
2022-08-04T02:01:04.877Z,18.70
2022-08-04T02:04:20.593Z,18.70
2022-08-04T02:06:24.561Z,18.70
2022-08-04T02:09:00.992Z,18.70
2022-08-04T02:11:30.348Z,18.70
2022-08-04T02:14:06.587Z,18.60
2022-08-04T02:16:36.672Z,18.60
2022-08-04T02:19:16.070Z,18.60
2022-08-04T02:21:46.670Z,18.60
2022-08-04T02:24:15.108Z,18.60
2022-08-04T02:26:43.221Z,18.60
2022-08-04T02:29:16.422Z,18.50
2022-08-04T02:31:47.625Z,18.50
2022-08-04T02:34:23.462Z,18.50
2022-08-04T02:36:51.900Z,18.50
2022-08-04T02:39:22.844Z,18.40
2022-08-04T02:41:50.404Z,18.40
2022-08-04T02:44:22.419Z,18.50
2022-08-04T02:46:52.423Z,18.40
2022-08-04T02:49:19.723Z,18.40
2022-08-04T02:51:49.190Z,18.40
2022-08-04T02:54:22.361Z,18.40
2022-08-04T02:57:00.487Z,18.40
2022-08-04T02:59:28.331Z,18.40
2022-08-04T03:01:57.942Z,18.40
2022-08-04T03:04:50.132Z,18.30
2022-08-04T03:07:36.377Z,18.30
2022-08-04T03:10:18.889Z,18.20
2022-08-04T03:12:51.670Z,18.30
2022-08-04T03:15:44.805Z,18.20
2022-08-04T03:18:23.770Z,18.30
2022-08-04T03:21:05.613Z,18.30
2022-08-04T03:23:38.901Z,18.40
2022-08-04T03:26:24.410Z,18.40
2022-08-04T03:28:51.395Z,18.40
2022-08-04T03:31:36.488Z,18.40
2022-08-04T03:34:17.202Z,18.40
2022-08-04T03:37:02.915Z,18.40
2022-08-04T03:39:32.953Z,18.40
2022-08-04T03:42:12.048Z,18.50
2022-08-04T03:44:41.355Z,18.50
2022-08-04T03:47:20.784Z,18.60
2022-08-04T03:49:51.139Z,18.60
2022-08-04T03:52:53.245Z,18.70
2022-08-04T03:55:23.126Z,18.70
2022-08-04T03:57:52.994Z,18.80
2022-08-04T04:00:21.603Z,18.90
2022-08-04T04:02:48.701Z,18.90
2022-08-04T04:05:15.807Z,18.90
2022-08-04T04:07:59.867Z,19.00
2022-08-04T04:10:28.880Z,19.10
2022-08-04T04:12:58.836Z,19.10
2022-08-04T04:15:30.041Z,19.20
2022-08-04T04:18:03.197Z,19.20
2022-08-04T04:20:48.448Z,19.30
2022-08-04T04:23:15.431Z,19.20
2022-08-04T04:26:03.318Z,19.40
2022-08-04T04:28:46.088Z,19.40
2022-08-04T04:31:22.860Z,19.40
2022-08-04T04:34:06.024Z,19.40
2022-08-04T04:36:35.965Z,19.40
2022-08-04T04:39:09.385Z,19.40
2022-08-04T04:42:02.145Z,19.50
2022-08-04T04:44:35.177Z,19.50
2022-08-04T04:47:21.147Z,19.60
2022-08-04T04:50:11.314Z,19.60
2022-08-04T04:52:41.534Z,19.60
2022-08-04T04:55:21.159Z,19.70
2022-08-04T04:57:54.386Z,19.80
2022-08-04T05:00:25.058Z,19.80
2022-08-04T05:03:01.732Z,19.80
2022-08-04T05:05:36.175Z,19.90
2022-08-04T05:08:43.962Z,20.00
2022-08-04T05:11:21.991Z,20.10
2022-08-04T05:14:36.654Z,20.10
2022-08-04T05:16:44.851Z,20.10
2022-08-04T05:19:15.116Z,20.20
2022-08-04T05:21:58.255Z,20.30
2022-08-04T05:24:26.102Z,20.40
2022-08-04T05:26:55.203Z,20.50
2022-08-04T05:29:42.398Z,20.70
2022-08-04T05:32:12.836Z,20.80
2022-08-04T05:34:42.360Z,20.90
2022-08-04T05:37:10.976Z,20.90
2022-08-04T05:39:42.451Z,21.00
2022-08-04T05:42:14.845Z,21.00
2022-08-04T05:44:46.383Z,21.10
2022-08-04T05:47:16.668Z,21.10
2022-08-04T05:49:44.666Z,21.20
2022-08-04T05:52:12.609Z,21.30
2022-08-04T05:54:40.843Z,21.40
2022-08-04T05:57:08.757Z,21.50
2022-08-04T05:59:37.812Z,21.70
2022-08-04T06:02:05.322Z,21.80
2022-08-04T06:04:34.956Z,21.90
2022-08-04T06:07:02.177Z,21.90
2022-08-04T06:09:30.124Z,22.00
2022-08-04T06:12:03.232Z,22.00
2022-08-04T06:14:33.338Z,22.20
2022-08-04T06:17:01.968Z,22.40
2022-08-04T06:20:00.314Z,22.50
2022-08-04T06:22:18.494Z,22.60
2022-08-04T06:24:48.298Z,22.70
2022-08-04T06:27:15.907Z,22.80
2022-08-04T06:29:51.250Z,22.80
2022-08-04T06:32:33.645Z,22.90
2022-08-04T06:35:07.287Z,23.00
2022-08-04T06:37:42.058Z,23.00
2022-08-04T06:40:29.835Z,23.10
2022-08-04T06:42:58.659Z,23.10
2022-08-04T06:45:26.128Z,23.20
2022-08-04T06:47:54.152Z,23.20
2022-08-04T06:51:24.364Z,23.20
2022-08-04T06:53:09.097Z,23.30
2022-08-04T06:55:36.249Z,23.30
2022-08-04T06:58:03.793Z,23.30
2022-08-04T07:00:32.232Z,23.40
2022-08-04T07:02:59.710Z,23.50
2022-08-04T07:05:29.212Z,23.60
2022-08-04T07:08:00.289Z,23.60
2022-08-04T07:10:28.237Z,23.70
2022-08-04T07:12:56.685Z,23.80
2022-08-04T07:15:25.487Z,23.90
2022-08-04T07:17:53.624Z,24.10
2022-08-04T07:20:34.741Z,24.30
2022-08-04T07:23:06.386Z,24.70
2022-08-04T07:25:59.509Z,25.00
2022-08-04T07:28:21.892Z,25.40
2022-08-04T07:30:49.380Z,25.80
2022-08-04T07:33:17.197Z,26.10
2022-08-04T07:36:10.462Z,26.50
2022-08-04T07:38:33.108Z,26.60
2022-08-04T07:41:00.521Z,26.40
2022-08-04T07:43:27.873Z,26.20
2022-08-04T07:45:54.907Z,26.00
2022-08-04T07:48:24.478Z,25.90
2022-08-04T07:50:51.893Z,25.90
2022-08-04T07:53:54.544Z,25.90
2022-08-04T07:56:06.676Z,25.90
2022-08-04T07:58:33.935Z,25.80
2022-08-04T08:01:01.372Z,25.70
2022-08-04T08:03:28.490Z,25.70
2022-08-04T08:06:17.581Z,25.60
2022-08-04T08:08:42.686Z,25.60
2022-08-04T08:11:11.087Z,25.60
2022-08-04T08:13:38.610Z,25.70
2022-08-04T08:16:06.123Z,25.80
2022-08-04T08:18:33.094Z,26.40
2022-08-04T08:21:00.241Z,26.90
2022-08-04T08:23:30.514Z,27.30
2022-08-04T08:25:58.267Z,27.60
2022-08-04T08:28:25.497Z,28.00
2022-08-04T08:30:52.792Z,28.00
2022-08-04T08:33:20.757Z,28.40
2022-08-04T08:35:53.055Z,28.50
2022-08-04T08:38:23.426Z,28.30
2022-08-04T08:40:55.993Z,27.90
2022-08-04T08:44:05.404Z,27.40
2022-08-04T08:46:13.025Z,27.10
2022-08-04T08:48:43.133Z,26.90
2022-08-04T08:51:10.065Z,26.60
2022-08-04T08:53:40.401Z,26.40
2022-08-04T08:56:10.456Z,26.30
2022-08-04T08:58:56.286Z,26.20
2022-08-04T09:01:42.511Z,26.10
2022-08-04T09:04:31.943Z,26.10
2022-08-04T09:07:18.248Z,25.90
2022-08-04T09:09:51.356Z,25.90
2022-08-04T09:12:20.070Z,26.00
2022-08-04T09:15:00.882Z,26.10
2022-08-04T09:17:30.510Z,26.20
2022-08-04T09:20:04.213Z,26.40
2022-08-04T09:23:01.287Z,26.50
2022-08-04T09:25:34.759Z,26.50
2022-08-04T09:28:43.779Z,26.50
2022-08-04T09:31:17.056Z,26.60
2022-08-04T09:34:13.443Z,26.80
2022-08-04T09:36:59.087Z,26.90
2022-08-04T09:39:44.663Z,27.20
2022-08-04T09:42:26.061Z,27.30
2022-08-04T09:45:21.281Z,27.40
2022-08-04T09:47:57.481Z,27.50
2022-08-04T09:50:29.752Z,28.10
2022-08-04T09:52:56.881Z,28.80
2022-08-04T09:55:26.960Z,29.30
2022-08-04T18:02:32.227Z,26.80
2022-08-04T18:05:06.247Z,26.90
2022-08-04T18:08:34.519Z,26.80
2022-08-04T18:10:39.763Z,26.70
2022-08-04T18:13:22.080Z,26.60
2022-08-04T18:15:51.353Z,26.60
2022-08-04T18:18:21.329Z,26.50
2022-08-04T18:20:50.302Z,26.50
2022-08-04T18:23:17.364Z,26.40
2022-08-04T18:25:51.059Z,26.40
2022-08-04T18:28:26.685Z,26.30
2022-08-04T18:30:55.684Z,26.30
2022-08-04T18:33:37.537Z,26.20
2022-08-04T18:36:37.026Z,26.20
2022-08-04T18:38:58.165Z,26.20
2022-08-04T18:41:29.107Z,26.10
2022-08-04T18:44:16.136Z,26.00
2022-08-04T18:46:52.623Z,25.90
2022-08-04T18:50:31.962Z,25.90
2022-08-04T18:52:15.118Z,25.80
2022-08-04T18:54:43.276Z,25.80
2022-08-04T18:57:32.557Z,25.70
2022-08-04T18:59:57.478Z,25.60
2022-08-04T19:02:27.586Z,25.60
2022-08-04T19:04:54.728Z,25.50
2022-08-04T19:07:24.503Z,25.40
2022-08-04T19:10:09.187Z,25.40
2022-08-04T19:12:53.704Z,25.30
2022-08-04T19:15:21.085Z,25.20
2022-08-04T19:18:02.382Z,25.20
2022-08-04T19:20:34.387Z,25.10
2022-08-04T19:24:30.141Z,25.00
2022-08-04T19:28:35.064Z,24.90
2022-08-04T19:31:03.992Z,24.80
2022-08-04T19:33:58.710Z,24.80
2022-08-04T19:36:18.212Z,24.70
2022-08-04T19:38:45.502Z,24.70
2022-08-04T19:41:14.342Z,24.60
2022-08-04T19:43:43.799Z,24.60
2022-08-04T19:46:12.201Z,24.50
2022-08-04T19:48:40.167Z,24.50
2022-08-04T19:53:37.358Z,24.40
2022-08-04T19:56:05.166Z,24.30
2022-08-04T19:58:32.117Z,24.30
2022-08-04T20:00:59.352Z,24.20
2022-08-04T20:04:08.048Z,24.20
2022-08-04T20:06:13.390Z,24.10
2022-08-04T20:08:48.660Z,24.10
2022-08-04T20:11:16.557Z,24.00
2022-08-04T20:13:45.449Z,24.00
2022-08-04T20:16:30.416Z,24.00
2022-08-04T20:21:53.469Z,23.90
2022-08-04T20:24:41.703Z,23.80
2022-08-04T20:29:39.038Z,23.80
2022-08-04T20:32:08.579Z,23.70
2022-08-04T20:34:36.103Z,23.70
2022-08-04T20:37:03.845Z,23.60
2022-08-04T20:39:31.126Z,23.60
2022-08-04T20:41:58.632Z,23.60
2022-08-04T20:44:25.927Z,23.50
2022-08-04T20:46:53.362Z,23.50
2022-08-04T20:49:20.370Z,23.50
2022-08-04T20:51:50.282Z,23.50
2022-08-04T20:54:26.393Z,23.40
2022-08-04T20:56:54.115Z,23.40
2022-08-04T20:59:22.223Z,23.30
2022-08-04T21:01:53.500Z,23.40
2022-08-04T21:04:35.742Z,23.30
2022-08-04T21:07:05.782Z,23.30
2022-08-04T21:12:05.851Z,23.30
2022-08-04T21:14:32.935Z,23.30
2022-08-04T21:17:00.369Z,23.30
2022-08-04T21:21:55.107Z,23.20
2022-08-04T21:24:25.893Z,23.10
2022-08-04T21:26:56.779Z,23.10
2022-08-04T21:29:34.905Z,23.10
2022-08-04T21:32:05.690Z,23.00
2022-08-04T21:34:39.509Z,23.00
2022-08-04T21:39:59.381Z,22.90
2022-08-04T21:42:29.705Z,22.90
2022-08-04T21:45:09.851Z,22.90
2022-08-04T21:47:46.369Z,22.80
2022-08-04T21:50:20.053Z,22.80
2022-08-04T21:52:48.156Z,22.70
2022-08-04T21:55:16.054Z,22.70
2022-08-04T21:57:43.031Z,22.70
2022-08-04T22:00:10.818Z,22.60
2022-08-04T22:02:45.953Z,22.60
2022-08-04T22:05:15.761Z,22.60
2022-08-04T22:10:32.382Z,22.60
2022-08-04T22:13:06.912Z,22.50
2022-08-04T22:16:04.496Z,22.50
2022-08-04T22:18:24.567Z,22.50
2022-08-04T22:20:55.045Z,22.40
2022-08-04T22:23:25.288Z,22.40
2022-08-04T22:25:53.754Z,22.40
2022-08-04T22:28:24.594Z,22.30
2022-08-04T22:30:55.946Z,22.30
2022-08-04T22:33:23.175Z,22.30
2022-08-04T22:35:50.253Z,22.20
2022-08-04T22:40:56.505Z,22.20
2022-08-04T22:43:33.443Z,22.20
2022-08-04T22:46:07.334Z,22.10
2022-08-04T22:48:39.025Z,22.20
2022-08-04T22:51:07.417Z,22.20
2022-08-04T22:53:35.344Z,22.20
2022-08-04T22:56:09.351Z,22.20
2022-08-04T22:58:45.376Z,22.20
2022-08-04T23:01:18.355Z,22.10
2022-08-04T23:03:50.913Z,22.10
2022-08-04T23:06:24.448Z,22.00
2022-08-04T23:08:51.930Z,21.90
2022-08-04T23:11:18.953Z,21.90
2022-08-04T23:13:47.214Z,21.90
2022-08-04T23:16:15.960Z,21.80
2022-08-04T23:18:48.162Z,21.80
2022-08-04T23:21:16.042Z,21.80
2022-08-04T23:23:45.611Z,21.70
2022-08-04T23:26:27.792Z,21.70
2022-08-04T23:28:56.223Z,21.70
2022-08-04T23:31:23.719Z,21.70
2022-08-04T23:33:52.113Z,21.70
2022-08-04T23:36:29.790Z,21.60
2022-08-04T23:39:03.997Z,21.60
2022-08-04T23:44:24.652Z,21.60
2022-08-04T23:47:03.365Z,21.50
2022-08-04T23:49:43.580Z,21.50
2022-08-04T23:52:27.431Z,21.50
2022-08-04T23:54:59.948Z,21.40
2022-08-04T23:57:31.495Z,21.40
